Time;durP1;ratioP1;P1;durP2;ratioP2;P2;SDS_P1;SDS_P2;PMS_P1;PMS_P2;Temp;Humidity;BMP_temperature;BMP_pressure;BME280_temperature;BME280_humidity;BME280_pressure;Samples;Min_cycle;Max_cycle;Signal;HPM_P1;HPM_P2
2023/05/26 00:01:47;;;;;;;35.20;3.33;;;10.10;99.90;;;;;;5009684;28;20021;-66
2023/05/26 00:04:17;;;;;;;16.37;3.53;;;10.00;99.90;;;;;;4993842;28;20053;-64
2023/05/26 00:06:46;;;;;;;23.80;3.15;;;10.10;99.90;;;;;;4998620;28;20018;-65
2023/05/26 00:09:12;;;;;;;24.10;3.05;;;10.10;99.90;;;;;;4997982;28;20445;-78
2023/05/26 00:11:38;;;;;;;20.38;3.33;;;10.10;99.90;;;;;;4996832;28;20030;-65
2023/05/26 00:14:05;;;;;;;16.15;3.00;;;10.10;99.90;;;;;;5000222;28;20117;-64
2023/05/26 00:16:31;;;;;;;18.85;3.33;;;10.10;99.90;;;;;;4998072;28;20038;-75
2023/05/26 00:18:56;;;;;;;17.73;3.93;;;10.00;99.90;;;;;;4989837;28;20031;-65
2023/05/26 00:21:24;;;;;;;27.30;3.80;;;10.10;99.90;;;;;;4984489;28;20026;-64
2023/05/26 00:23:50;;;;;;;23.55;4.22;;;10.00;99.90;;;;;;5012700;28;20069;-65
2023/05/26 00:26:16;;;;;;;24.97;3.30;;;10.00;99.90;;;;;;4992832;28;20058;-65
2023/05/26 00:28:42;;;;;;;28.77;3.43;;;10.00;99.90;;;;;;4981881;28;20030;-65
2023/05/26 00:31:08;;;;;;;19.10;3.60;;;10.00;99.90;;;;;;4992315;28;20037;-63
2023/05/26 00:33:34;;;;;;;13.30;4.00;;;10.00;99.90;;;;;;4993981;28;20310;-65
2023/05/26 00:35:59;;;;;;;18.00;2.80;;;10.00;99.90;;;;;;4996510;28;20077;-64
2023/05/26 00:38:25;;;;;;;24.00;3.43;;;10.00;99.90;;;;;;4997117;28;20663;-64
2023/05/26 00:40:51;;;;;;;16.00;3.13;;;10.00;99.90;;;;;;5004905;28;20316;-64
2023/05/26 00:43:17;;;;;;;16.73;3.58;;;9.90;99.90;;;;;;5002811;28;20030;-65
2023/05/26 00:45:43;;;;;;;25.53;4.50;;;9.90;99.90;;;;;;5010772;28;20041;-64
2023/05/26 00:48:09;;;;;;;28.13;4.67;;;9.90;99.90;;;;;;5011162;28;20036;-64
2023/05/26 00:50:35;;;;;;;22.67;3.90;;;9.90;99.90;;;;;;4986048;28;20086;-65
2023/05/26 00:53:01;;;;;;;23.07;4.37;;;9.90;99.90;;;;;;5009518;28;20121;-64
2023/05/26 00:55:28;;;;;;;25.45;3.88;;;9.90;99.90;;;;;;5012221;28;20361;-63
2023/05/26 00:57:58;;;;;;;21.40;4.40;;;10.00;99.90;;;;;;4986316;28;20042;-63
2023/05/26 01:00:25;;;;;;;28.63;4.95;;;9.90;99.90;;;;;;4996157;28;20444;-65
2023/05/26 01:02:56;;;;;;;26.80;3.72;;;9.90;99.90;;;;;;4996483;28;20061;-64
2023/05/26 01:05:23;;;;;;;20.40;3.42;;;9.90;99.90;;;;;;4996606;28;20030;-65
2023/05/26 01:07:48;;;;;;;21.25;4.43;;;9.90;99.90;;;;;;4997576;28;20027;-78
2023/05/26 01:10:14;;;;;;;23.20;4.30;;;9.90;99.90;;;;;;4998494;28;20045;-65
2023/05/26 01:12:49;;;;;;;23.87;3.80;;;9.90;99.90;;;;;;4994069;28;20073;-64
2023/05/26 01:15:26;;;;;;;22.83;3.88;;;9.90;99.90;;;;;;4985210;28;20366;-69
2023/05/26 01:17:55;;;;;;;23.73;4.03;;;9.90;99.90;;;;;;4995929;28;20445;-64
2023/05/26 01:20:30;;;;;;;20.10;3.65;;;9.80;99.90;;;;;;4998283;28;20030;-64
2023/05/26 01:23:32;;;;;;;23.13;3.47;;;9.80;99.90;;;;;;4995940;28;20026;-64
2023/05/26 01:26:21;;;;;;;25.10;3.80;;;9.80;99.90;;;;;;4995927;28;20116;-64
2023/05/26 01:29:00;;;;;;;29.83;4.57;;;9.80;99.90;;;;;;4996473;28;20034;-65
2023/05/26 01:31:25;;;;;;;22.75;4.38;;;9.80;99.90;;;;;;4997121;28;20030;-63
2023/05/26 01:33:51;;;;;;;21.63;3.20;;;9.80;99.90;;;;;;4996907;28;20041;-63
2023/05/26 01:36:17;;;;;;;26.67;4.13;;;9.70;99.90;;;;;;4996139;28;20022;-65
2023/05/26 01:38:43;;;;;;;14.38;3.50;;;9.70;99.90;;;;;;4997517;28;20019;-64
2023/05/26 01:41:29;;;;;;;22.23;3.10;;;9.70;99.90;;;;;;4996691;28;20029;-64
2023/05/26 01:44:08;;;;;;;18.00;4.25;;;9.70;99.90;;;;;;4991360;28;20085;-77
2023/05/26 01:46:51;;;;;;;26.42;4.13;;;9.70;99.90;;;;;;4989339;28;20027;-64
2023/05/26 01:49:21;;;;;;;23.30;3.67;;;9.70;99.90;;;;;;4993653;28;20034;-77
2023/05/26 01:51:58;;;;;;;19.10;3.80;;;9.70;99.90;;;;;;5002555;28;20174;-64
2023/05/26 01:54:27;;;;;;;24.33;3.53;;;9.70;99.90;;;;;;4995607;28;20489;-64
2023/05/26 01:56:54;;;;;;;24.17;4.07;;;9.70;99.90;;;;;;4995826;28;20023;-66
2023/05/26 01:59:24;;;;;;;23.50;4.18;;;9.70;99.90;;;;;;4995978;28;20026;-64
2023/05/26 02:01:50;;;;;;;28.55;4.45;;;9.70;99.90;;;;;;4995125;28;20046;-65
2023/05/26 02:04:16;;;;;;;29.10;3.88;;;9.60;99.90;;;;;;4996509;28;20041;-65
2023/05/26 02:06:41;;;;;;;28.03;3.87;;;9.70;99.90;;;;;;4996246;28;20030;-65
2023/05/26 02:09:08;;;;;;;21.87;3.67;;;9.60;99.90;;;;;;4996919;28;20088;-64
2023/05/26 02:11:34;;;;;;;21.20;3.85;;;9.70;99.90;;;;;;4995678;28;20033;-65
2023/05/26 02:14:00;;;;;;;33.80;5.05;;;9.70;99.90;;;;;;4996477;28;20022;-64
2023/05/26 02:16:26;;;;;;;20.27;3.33;;;9.70;99.90;;;;;;4995062;28;20056;-65
2023/05/26 02:18:52;;;;;;;23.30;4.13;;;9.70;99.90;;;;;;4996145;28;20303;-65
2023/05/26 02:21:18;;;;;;;20.20;4.28;;;9.70;99.90;;;;;;4996649;28;20073;-84
2023/05/26 02:23:44;;;;;;;22.17;3.47;;;9.60;99.90;;;;;;4994716;28;20038;-64
2023/05/26 02:26:10;;;;;;;15.33;3.67;;;9.60;99.90;;;;;;4996024;28;20034;-64
2023/05/26 02:28:40;;;;;;;12.97;3.27;;;9.60;99.90;;;;;;4994415;28;20041;-64
2023/05/26 02:31:06;;;;;;;24.15;3.45;;;9.60;99.90;;;;;;4996438;28;20022;-64
2023/05/26 02:33:32;;;;;;;17.83;4.40;;;9.60;99.90;;;;;;4996650;28;20038;-64
2023/05/26 02:35:58;;;;;;;24.03;4.50;;;9.60;99.90;;;;;;4994823;28;20051;-64
2023/05/26 02:38:23;;;;;;;26.60;4.47;;;9.60;99.90;;;;;;4995775;28;20057;-64
2023/05/26 02:40:49;;;;;;;20.17;3.40;;;9.50;99.90;;;;;;4995775;28;20022;-65
2023/05/26 02:43:16;;;;;;;15.07;2.80;;;9.60;99.90;;;;;;4996461;28;20026;-64
2023/05/26 02:45:43;;;;;;;22.85;4.60;;;9.60;99.90;;;;;;4995054;28;20045;-64
2023/05/26 02:48:08;;;;;;;29.55;3.67;;;9.60;99.90;;;;;;4996026;28;20061;-64
2023/05/26 02:50:34;;;;;;;23.83;4.10;;;9.60;99.90;;;;;;4996209;28;20061;-65
2023/05/26 02:53:00;;;;;;;20.53;3.87;;;9.60;99.90;;;;;;4995798;28;20121;-64
2023/05/26 02:55:26;;;;;;;31.23;4.13;;;9.60;99.90;;;;;;4995842;28;20022;-78
2023/05/26 02:57:52;;;;;;;24.23;4.60;;;9.50;99.90;;;;;;4994677;28;20042;-64
2023/05/26 03:00:19;;;;;;;27.77;3.80;;;9.60;99.90;;;;;;4995437;28;20029;-65
2023/05/26 03:02:45;;;;;;;24.45;4.03;;;9.60;99.90;;;;;;4994360;28;20088;-65
2023/05/26 03:05:12;;;;;;;36.13;4.07;;;9.60;99.90;;;;;;4995906;28;20026;-65
2023/05/26 03:07:38;;;;;;;19.70;3.75;;;9.60;99.90;;;;;;4993396;28;20034;-64
2023/05/26 03:10:04;;;;;;;20.37;5.20;;;9.60;99.90;;;;;;4995142;28;20049;-63
2023/05/26 03:12:30;;;;;;;30.38;3.90;;;9.50;99.90;;;;;;4994713;28;20035;-64
2023/05/26 03:14:57;;;;;;;24.67;5.07;;;9.50;99.90;;;;;;4994950;28;20029;-64
2023/05/26 03:17:22;;;;;;;22.00;2.90;;;9.60;99.90;;;;;;5003112;28;20031;-65
2023/05/26 03:19:48;;;;;;;27.37;4.47;;;9.50;99.90;;;;;;4994395;28;20080;-64
2023/05/26 03:22:14;;;;;;;16.93;3.50;;;9.50;99.90;;;;;;4995852;28;20033;-66
2023/05/26 03:24:40;;;;;;;25.20;3.97;;;9.50;99.90;;;;;;4994847;28;20026;-65
2023/05/26 03:27:06;;;;;;;21.90;2.93;;;9.50;99.90;;;;;;4995015;28;20047;-65
2023/05/26 03:29:33;;;;;;;17.75;3.30;;;9.50;99.90;;;;;;4995682;28;20049;-64
2023/05/26 03:31:59;;;;;;;19.17;3.67;;;9.60;99.90;;;;;;4994603;28;20027;-64
2023/05/26 03:34:25;;;;;;;18.30;4.20;;;9.50;99.90;;;;;;4995489;28;20295;-66
2023/05/26 03:36:52;;;;;;;25.53;3.40;;;9.50;99.90;;;;;;4993060;28;20045;-64
2023/05/26 03:39:19;;;;;;;20.50;3.92;;;9.40;99.90;;;;;;4989504;28;20023;-78
2023/05/26 03:41:45;;;;;;;17.17;3.35;;;9.50;99.90;;;;;;4985744;28;20026;-64
2023/05/26 03:44:11;;;;;;;17.40;3.63;;;9.50;99.90;;;;;;4992435;28;20290;-63
2023/05/26 03:46:36;;;;;;;25.23;4.60;;;9.50;99.90;;;;;;4995129;28;20030;-64
2023/05/26 03:49:02;;;;;;;16.80;4.53;;;9.50;99.90;;;;;;4992990;28;20084;-64
2023/05/26 03:51:28;;;;;;;15.40;4.13;;;9.50;99.90;;;;;;4995160;28;20134;-64
2023/05/26 03:53:53;;;;;;;20.97;3.87;;;9.50;99.90;;;;;;4994714;28;20037;-64
2023/05/26 03:56:19;;;;;;;22.40;3.50;;;9.50;99.90;;;;;;4993558;28;20429;-77
2023/05/26 03:58:45;;;;;;;16.37;3.70;;;9.50;99.90;;;;;;4992545;28;20034;-65
2023/05/26 04:01:11;;;;;;;26.30;5.27;;;9.50;99.90;;;;;;4994755;28;20410;-63
2023/05/26 04:03:36;;;;;;;26.80;4.10;;;9.50;99.90;;;;;;4995059;28;20109;-65
2023/05/26 04:06:02;;;;;;;24.97;3.30;;;9.50;99.90;;;;;;5010270;28;20038;-78
2023/05/26 04:08:28;;;;;;;44.23;4.97;;;9.50;99.90;;;;;;4993508;28;20358;-65
2023/05/26 04:10:54;;;;;;;23.10;3.93;;;9.50;99.90;;;;;;4994980;28;20322;-64
2023/05/26 04:13:20;;;;;;;40.05;5.00;;;9.50;99.90;;;;;;4993387;28;20022;-65
2023/05/26 04:15:46;;;;;;;21.10;4.13;;;9.60;99.90;;;;;;4994929;28;20046;-64
2023/05/26 04:18:12;;;;;;;20.20;2.93;;;9.60;99.90;;;;;;4994053;28;20038;-64
2023/05/26 04:20:38;;;;;;;18.92;3.42;;;9.60;99.90;;;;;;4984508;28;20423;-64
2023/05/26 04:23:04;;;;;;;13.87;3.00;;;9.60;99.90;;;;;;4994701;28;20072;-65
2023/05/26 04:25:30;;;;;;;22.83;3.07;;;9.60;99.90;;;;;;4994498;28;20452;-64
2023/05/26 04:27:58;;;;;;;26.27;4.25;;;9.70;99.90;;;;;;4993598;28;20610;-64
2023/05/26 04:30:25;;;;;;;21.73;4.25;;;9.60;99.90;;;;;;4994108;28;20484;-64
2023/05/26 04:32:50;;;;;;;;;;;9.70;99.90;;;;;;4995235;28;20069;-65
2023/05/26 04:35:19;;;;;;;32.43;4.27;;;9.80;99.90;;;;;;4994891;28;19909;-65
2023/05/26 04:37:45;;;;;;;14.23;3.17;;;9.70;99.90;;;;;;4994346;28;20023;-65
2023/05/26 04:40:11;;;;;;;20.27;3.33;;;9.80;99.90;;;;;;4994591;28;20030;-77
2023/05/26 04:42:37;;;;;;;18.97;3.63;;;9.80;99.90;;;;;;5009432;28;20157;-64
2023/05/26 04:45:04;;;;;;;17.27;3.63;;;9.80;99.90;;;;;;4995166;28;20038;-63
2023/05/26 04:47:35;;;;;;;16.02;3.55;;;9.80;99.90;;;;;;4994358;28;20057;-65
2023/05/26 04:50:06;;;;;;;20.48;3.50;;;9.90;99.90;;;;;;4993062;28;20366;-65
2023/05/26 04:52:32;;;;;;;23.45;4.05;;;9.90;99.90;;;;;;4996104;28;20065;-63
2023/05/26 04:54:58;;;;;;;14.33;3.47;;;10.00;99.90;;;;;;4995674;28;20422;-64
2023/05/26 04:57:23;;;;;;;20.40;3.77;;;10.00;99.90;;;;;;4997940;28;20027;-64
2023/05/26 04:59:49;;;;;;;17.47;2.60;;;10.00;99.90;;;;;;4996922;28;20034;-64
2023/05/26 05:02:15;;;;;;;26.87;3.50;;;10.10;99.90;;;;;;4994247;28;20323;-64
2023/05/26 05:04:42;;;;;;;24.87;3.83;;;10.10;99.90;;;;;;5000868;28;20409;-76
2023/05/26 05:07:08;;;;;;;21.67;3.67;;;10.20;99.90;;;;;;4996935;28;20018;-63
2023/05/26 05:09:34;;;;;;;21.40;3.55;;;10.20;99.90;;;;;;5002898;28;20446;-65
2023/05/26 05:12:01;;;;;;;22.50;3.80;;;10.20;99.90;;;;;;5005868;28;20088;-63
2023/05/26 05:14:27;;;;;;;16.45;3.67;;;10.20;99.90;;;;;;4991867;28;20041;-77
2023/05/26 05:16:52;;;;;;;25.33;4.80;;;10.30;99.90;;;;;;5011831;28;20054;-63
2023/05/26 05:19:18;;;;;;;20.10;3.20;;;10.30;99.90;;;;;;4995074;28;20344;-63
2023/05/26 05:21:44;;;;;;;21.93;3.87;;;10.40;99.90;;;;;;5008383;28;20026;-64
2023/05/26 05:24:11;;;;;;;19.63;3.95;;;10.40;99.90;;;;;;5000552;28;20418;-64
2023/05/26 05:26:37;;;;;;;33.70;3.17;;;10.40;99.90;;;;;;5002142;28;20039;-64
2023/05/26 05:29:04;;;;;;;22.77;4.32;;;10.40;99.90;;;;;;5006020;28;20117;-64
2023/05/26 05:31:30;;;;;;;18.33;4.22;;;10.50;99.90;;;;;;4997468;28;20089;-64
2023/05/26 05:33:56;;;;;;;25.60;3.20;;;10.50;99.90;;;;;;4997476;28;20026;-65
2023/05/26 05:36:21;;;;;;;22.93;3.90;;;10.50;99.90;;;;;;4996207;28;20062;-63
2023/05/26 05:38:47;;;;;;;27.53;4.20;;;10.50;99.90;;;;;;4997375;28;20402;-64
2023/05/26 05:41:14;;;;;;;23.40;4.07;;;10.50;99.90;;;;;;4996630;28;20307;-63
2023/05/26 05:43:40;;;;;;;17.58;5.45;;;10.60;99.90;;;;;;4997141;28;20026;-64
2023/05/26 05:46:06;;;;;;;12.63;2.63;;;10.60;99.90;;;;;;4995986;28;20030;-64
2023/05/26 05:48:32;;;;;;;23.73;3.53;;;10.60;99.90;;;;;;4997790;28;20122;-78
2023/05/26 05:50:59;;;;;;;21.48;4.72;;;10.60;99.90;;;;;;4992261;28;20030;-64
2023/05/26 05:53:25;;;;;;;25.67;3.55;;;10.60;99.90;;;;;;4995484;28;20034;-64
2023/05/26 05:55:51;;;;;;;27.10;4.20;;;10.60;99.90;;;;;;4995185;28;20026;-64
2023/05/26 05:58:17;;;;;;;12.13;2.50;;;10.70;99.90;;;;;;4994438;28;20057;-64
2023/05/26 06:00:43;;;;;;;24.17;3.97;;;10.70;99.90;;;;;;4996887;28;20309;-64
2023/05/26 06:03:09;;;;;;;32.03;4.43;;;10.70;99.90;;;;;;4989955;28;20038;-64
2023/05/26 06:05:35;;;;;;;18.37;4.20;;;10.70;99.90;;;;;;4999487;28;20426;-64
2023/05/26 06:08:01;;;;;;;10.15;2.42;;;10.70;99.90;;;;;;5015677;28;20033;-66
2023/05/26 06:10:27;;;;;;;16.20;3.57;;;10.80;99.90;;;;;;5000387;28;20037;-65
2023/05/26 06:12:53;;;;;;;23.23;3.27;;;10.70;99.90;;;;;;4998832;28;20295;-65
2023/05/26 06:15:19;;;;;;;18.53;3.87;;;10.80;99.90;;;;;;4989846;28;20042;-64
2023/05/26 06:17:45;;;;;;;14.97;3.03;;;10.80;99.90;;;;;;4993553;28;20027;-66
2023/05/26 06:20:11;;;;;;;22.80;3.47;;;10.80;99.90;;;;;;5003126;28;20301;-78
2023/05/26 06:22:38;;;;;;;21.10;3.92;;;10.80;99.90;;;;;;4998662;28;20109;-64
2023/05/26 06:25:04;;;;;;;22.50;3.80;;;10.90;99.90;;;;;;4995297;28;20441;-65
2023/05/26 06:27:30;;;;;;;28.90;4.85;;;11.00;99.90;;;;;;4995185;28;20031;-65
2023/05/26 06:29:56;;;;;;;20.23;3.27;;;11.10;99.90;;;;;;5003414;28;20326;-64
2023/05/26 06:32:22;;;;;;;27.90;4.17;;;11.20;99.90;;;;;;4996358;28;20286;-64
2023/05/26 06:34:48;;;;;;;23.90;4.37;;;11.40;99.90;;;;;;4994057;28;20145;-64
2023/05/26 06:37:13;;;;;;;27.97;3.60;;;11.40;99.90;;;;;;4995917;28;20357;-66
2023/05/26 06:39:39;;;;;;;23.17;3.13;;;11.40;99.90;;;;;;4995538;28;20061;-76
2023/05/26 06:42:08;;;;;;;9.03;2.37;;;11.30;99.90;;;;;;4995693;28;20029;-65
2023/05/26 06:44:34;;;;;;;20.58;3.50;;;11.30;99.90;;;;;;4993830;28;20058;-65
2023/05/26 06:47:00;;;;;;;26.83;3.50;;;11.30;99.90;;;;;;4996334;28;20085;-65
2023/05/26 06:49:26;;;;;;;24.13;3.97;;;11.40;99.90;;;;;;4994242;28;20028;-65
2023/05/26 06:51:51;;;;;;;20.23;3.07;;;11.60;99.90;;;;;;4995210;28;20034;-66
2023/05/26 06:54:17;;;;;;;21.30;3.87;;;11.70;99.90;;;;;;4995330;28;20034;-65
2023/05/26 06:56:43;;;;;;;22.83;4.07;;;11.90;99.90;;;;;;4996204;28;20046;-66
2023/05/26 06:59:09;;;;;;;14.83;2.57;;;12.00;99.90;;;;;;4991610;28;20101;-64
2023/05/26 07:01:36;;;;;;;16.70;3.70;;;12.10;99.90;;;;;;5001706;28;20444;-64
2023/05/26 07:04:02;;;;;;;19.83;3.35;;;12.00;99.90;;;;;;4998817;28;20070;-65
2023/05/26 07:06:28;;;;;;;25.98;3.50;;;11.90;99.90;;;;;;4986012;28;20038;-65
2023/05/26 07:08:54;;;;;;;14.75;3.58;;;11.90;99.90;;;;;;4988744;28;20039;-65
2023/05/26 07:11:21;;;;;;;16.10;3.70;;;11.90;99.90;;;;;;4988677;28;20325;-64
2023/05/26 07:13:49;;;;;;;19.92;3.40;;;11.90;99.90;;;;;;4988890;28;20019;-64
2023/05/26 07:16:15;;;;;;;20.52;3.60;;;11.90;99.90;;;;;;4995902;28;20372;-64
2023/05/26 07:18:41;;;;;;;27.53;3.60;;;11.90;99.90;;;;;;4990474;28;20026;-64
2023/05/26 07:21:07;;;;;;;29.80;3.60;;;11.80;99.90;;;;;;4997337;28;20309;-64
2023/05/26 07:23:33;;;;;;;31.73;4.23;;;11.80;99.90;;;;;;4991665;28;20018;-68
2023/05/26 07:25:59;;;;;;;20.17;3.70;;;11.80;99.90;;;;;;4995811;28;20052;-64
2023/05/26 07:28:25;;;;;;;15.17;2.43;;;11.90;99.90;;;;;;5001265;28;20034;-67
2023/05/26 07:30:51;;;;;;;10.47;2.73;;;11.90;99.90;;;;;;4997907;28;20427;-65
2023/05/26 07:33:16;;;;;;;14.57;3.17;;;12.00;99.90;;;;;;4996135;28;20029;-65
2023/05/26 07:35:42;;;;;;;18.87;3.07;;;12.00;99.90;;;;;;5006320;28;20027;-66
2023/05/26 07:38:08;;;;;;;21.97;3.60;;;12.00;99.90;;;;;;4990448;28;20034;-66
2023/05/26 07:40:37;;;;;;;20.57;3.40;;;12.00;99.90;;;;;;5007270;28;20100;-65
2023/05/26 07:43:04;;;;;;;18.13;2.78;;;12.20;99.90;;;;;;5012154;28;20040;-65
2023/05/26 07:45:29;;;;;;;;;;;12.40;99.90;;;;;;5002755;28;20038;-66
2023/05/26 07:47:55;;;;;;;17.50;3.63;;;12.40;99.90;;;;;;5004653;28;19905;-65
2023/05/26 07:50:21;;;;;;;18.13;3.47;;;12.60;99.90;;;;;;5011259;28;20313;-66
2023/05/26 07:52:47;;;;;;;16.47;3.27;;;12.60;99.90;;;;;;5001676;28;20084;-65
2023/05/26 07:55:13;;;;;;;14.20;3.20;;;12.60;99.90;;;;;;5006491;28;20463;-65
2023/05/26 07:57:38;;;;;;;19.77;3.13;;;12.70;99.90;;;;;;5006645;28;20040;-65
2023/05/26 08:00:05;;;;;;;18.13;2.53;;;12.90;99.90;;;;;;5002983;28;20031;-65
2023/05/26 08:02:32;;;;;;;25.25;4.30;;;12.90;99.90;;;;;;5003966;28;20061;-64
2023/05/26 08:04:58;;;;;;;18.50;3.20;;;12.70;99.90;;;;;;5010182;28;20349;-65
2023/05/26 08:07:24;;;;;;;12.52;2.97;;;12.80;99.90;;;;;;4995861;28;20142;-66
2023/05/26 08:09:52;;;;;;;20.83;4.13;;;12.90;99.90;;;;;;5006947;28;20121;-65
2023/05/26 08:12:17;;;;;;;19.38;4.07;;;13.10;99.90;;;;;;5007963;28;20029;-66
2023/05/26 08:14:43;;;;;;;21.57;3.50;;;13.10;99.90;;;;;;4998031;28;20452;-66
2023/05/26 08:17:10;;;;;;;14.47;4.40;;;13.10;99.90;;;;;;4995402;28;20073;-65
2023/05/26 08:19:36;;;;;;;21.40;2.70;;;13.20;99.90;;;;;;5002009;28;20073;-65
2023/05/26 08:22:01;;;;;;;11.50;2.67;;;13.40;99.90;;;;;;4984045;28;20027;-65
2023/05/26 08:24:27;;;;;;;20.07;3.07;;;13.60;99.90;;;;;;4985257;28;20107;-79
2023/05/26 08:26:53;;;;;;;18.47;4.00;;;13.60;99.90;;;;;;5007122;28;20434;-65
2023/05/26 08:29:20;;;;;;;26.83;4.90;;;13.50;99.90;;;;;;5009711;28;20076;-64
2023/05/26 08:31:46;;;;;;;21.67;3.63;;;13.60;99.90;;;;;;5009325;28;20434;-66
2023/05/26 08:34:11;;;;;;;22.30;4.07;;;13.70;99.90;;;;;;4998797;28;20035;-66
2023/05/26 08:36:40;;;;;;;24.17;4.07;;;13.80;99.90;;;;;;4998230;28;20271;-65
2023/05/26 08:39:05;;;;;;;13.00;2.85;;;13.70;99.90;;;;;;4998007;28;20030;-65
2023/05/26 08:41:57;;;;;;;20.30;3.53;;;13.70;99.90;;;;;;5006730;28;20029;-66
2023/05/26 08:44:24;;;;;;;19.58;3.15;;;13.80;99.90;;;;;;4992056;28;20026;-67
2023/05/26 08:46:55;;;;;;;16.30;3.25;;;13.80;99.90;;;;;;4999772;28;20062;-67
2023/05/26 08:49:22;;;;;;;13.98;2.65;;;13.70;99.90;;;;;;5001218;28;20421;-67
2023/05/26 08:52:10;;;;;;;11.88;2.35;;;13.70;99.90;;;;;;5010769;28;20112;-65
2023/05/26 08:54:37;;;;;;;14.88;3.50;;;13.80;99.90;;;;;;5009192;28;20026;-65
2023/05/26 08:57:04;;;;;;;21.70;2.90;;;14.00;99.90;;;;;;4997855;28;20041;-66
2023/05/26 08:59:32;;;;;;;16.60;4.47;;;14.10;99.90;;;;;;5003608;28;20031;-65
2023/05/26 09:01:59;;;;;;;17.00;3.50;;;14.10;99.90;;;;;;5008937;28;20081;-65
2023/05/26 09:04:29;;;;;;;14.80;3.00;;;14.10;99.90;;;;;;5001895;28;20029;-67
2023/05/26 09:06:56;;;;;;;5.22;2.25;;;14.20;99.90;;;;;;4985479;28;20381;-65
2023/05/26 09:09:23;;;;;;;9.98;2.53;;;14.00;99.90;;;;;;5008562;28;20021;-76
2023/05/26 09:11:48;;;;;;;16.88;2.92;;;13.80;99.90;;;;;;5003173;28;20044;-65
2023/05/26 09:14:17;;;;;;;20.13;3.50;;;13.90;99.90;;;;;;5010316;28;20022;-65
2023/05/26 09:16:43;;;;;;;13.20;3.17;;;13.90;99.90;;;;;;4989463;28;20485;-65
2023/05/26 09:19:19;;;;;;;13.98;3.58;;;14.20;99.90;;;;;;4993831;28;20436;-66
2023/05/26 09:21:49;;;;;;;16.05;2.95;;;14.10;99.90;;;;;;5005879;28;20414;-64
2023/05/26 09:24:17;;;;;;;20.05;3.72;;;14.20;99.90;;;;;;5009629;28;20425;-66
2023/05/26 09:26:48;;;;;;;14.35;3.22;;;14.30;99.90;;;;;;4992582;28;20113;-65
2023/05/26 09:29:15;;;;;;;14.07;3.35;;;14.40;99.90;;;;;;4994347;28;20026;-66
2023/05/26 09:31:46;;;;;;;14.77;2.97;;;14.30;99.90;;;;;;4989162;28;20318;-66
2023/05/26 09:34:14;;;;;;;19.30;3.88;;;14.50;99.90;;;;;;5002569;28;20475;-65
2023/05/26 09:36:41;;;;;;;21.73;3.97;;;14.40;99.90;;;;;;5002846;28;20325;-65
2023/05/26 09:39:12;;;;;;;11.40;2.60;;;14.50;99.90;;;;;;5000837;28;20030;-65
2023/05/26 09:41:45;;;;;;;20.13;3.65;;;14.40;99.90;;;;;;5007934;28;20037;-65
2023/05/26 09:44:19;;;;;;;15.90;3.80;;;14.30;99.90;;;;;;4985546;28;20030;-67
2023/05/26 09:46:46;;;;;;;16.13;4.28;;;14.50;99.90;;;;;;4988069;28;20145;-66
2023/05/26 09:49:14;;;;;;;18.10;3.92;;;14.50;99.90;;;;;;5004940;28;20041;-66
2023/05/26 09:51:41;;;;;;;12.85;2.95;;;14.60;99.90;;;;;;4989586;28;20038;-66
2023/05/26 09:54:09;;;;;;;19.30;4.35;;;14.60;99.90;;;;;;4987225;28;20034;-66
2023/05/26 09:56:37;;;;;;;10.05;2.70;;;14.70;99.90;;;;;;5000842;28;20325;-69
2023/05/26 09:59:06;;;;;;;11.07;3.20;;;14.70;99.90;;;;;;5004384;28;20026;-67
2023/05/26 10:01:39;;;;;;;25.52;4.10;;;14.60;99.90;;;;;;4990293;28;20031;-65
2023/05/26 10:04:07;;;;;;;20.27;4.05;;;14.70;99.90;;;;;;4990571;28;20034;-66
2023/05/26 10:06:37;;;;;;;14.40;3.67;;;14.70;99.90;;;;;;4992966;28;20037;-68
2023/05/26 10:09:08;;;;;;;24.40;4.35;;;14.90;99.90;;;;;;4986505;28;20069;-67
2023/05/26 10:11:40;;;;;;;12.05;2.92;;;14.90;99.90;;;;;;4988240;28;20098;-66
2023/05/26 10:14:06;;;;;;;25.27;4.43;;;15.10;99.90;;;;;;5005865;28;20033;-66
2023/05/26 10:16:33;;;;;;;24.07;3.50;;;15.00;99.90;;;;;;4980536;28;20072;-66
2023/05/26 10:18:59;;;;;;;18.75;3.25;;;15.00;99.90;;;;;;4981196;28;20023;-66
2023/05/26 10:21:40;;;;;;;25.08;3.45;;;15.00;99.90;;;;;;4994827;28;20030;-66
2023/05/26 10:24:16;;;;;;;18.88;3.00;;;15.10;99.90;;;;;;4988934;28;20034;-66
2023/05/26 10:26:42;;;;;;;;;;;15.30;99.90;;;;;;4995572;28;20034;-68
2023/05/26 10:29:12;;;;;;;16.87;3.93;;;15.10;99.90;;;;;;4995412;28;19910;-67
2023/05/26 10:31:40;;;;;;;6.00;1.17;;;15.10;99.90;;;;;;4999395;28;20034;-76
2023/05/26 10:34:33;;;;;;;14.10;3.15;;;15.10;99.90;;;;;;4995676;28;20022;-66
2023/05/26 10:37:00;;;;;;;18.45;3.22;;;15.20;99.90;;;;;;4996746;28;20030;-79
2023/05/26 10:39:27;;;;;;;13.95;3.35;;;15.20;99.90;;;;;;4994777;28;20077;-67
2023/05/26 10:41:53;;;;;;;14.07;3.88;;;15.20;99.90;;;;;;4995441;28;20057;-65
2023/05/26 10:44:41;;;;;;;14.32;3.13;;;15.30;99.90;;;;;;4994922;28;20030;-67
2023/05/26 10:47:13;;;;;;;11.27;2.75;;;15.40;99.90;;;;;;4989547;28;20334;-67
2023/05/26 10:49:39;;;;;;;11.00;2.90;;;15.40;99.90;;;;;;4989820;28;20029;-67
2023/05/26 10:52:13;;;;;;;14.32;2.58;;;15.20;99.90;;;;;;4995734;28;20321;-67
2023/05/26 10:54:40;;;;;;;21.90;3.33;;;15.30;99.90;;;;;;4995679;28;20065;-66
2023/05/26 10:57:25;;;;;;;;;;;15.60;99.90;;;;;;4995857;28;20049;-66
2023/05/26 10:59:53;;;;;;;10.50;2.70;;;15.70;99.90;;;;;;4985310;28;19914;-67
2023/05/26 11:02:21;;;;;;;12.40;2.38;;;15.70;99.90;;;;;;4985914;28;20042;-67
2023/05/26 11:04:49;;;;;;;9.73;2.28;;;15.80;99.90;;;;;;4995300;28;20022;-68
2023/05/26 11:07:26;;;;;;;10.07;2.47;;;15.70;99.90;;;;;;4995027;28;20121;-68
2023/05/26 11:10:06;;;;;;;16.88;2.90;;;15.60;99.90;;;;;;4978944;28;20035;-67
2023/05/26 11:12:33;;;;;;;11.77;2.67;;;15.80;99.90;;;;;;4977919;28;20062;-66
2023/05/26 11:15:19;;;;;;;13.85;2.50;;;15.70;99.90;;;;;;4978612;28;20035;-66
2023/05/26 11:17:45;;;;;;;16.58;2.50;;;15.60;99.90;;;;;;4981293;28;20038;-67
2023/05/26 11:20:16;;;;;;;14.97;2.87;;;15.70;99.90;;;;;;4978128;28;20102;-67
2023/05/26 11:22:42;;;;;;;14.25;2.33;;;15.80;99.90;;;;;;4995896;28;20026;-67
2023/05/26 11:25:08;;;;;;;16.85;3.30;;;16.00;99.90;;;;;;4986730;28;20054;-74
2023/05/26 11:27:35;;;;;;;11.10;2.45;;;16.00;99.90;;;;;;4991094;28;20036;-67
2023/05/26 11:30:01;;;;;;;18.52;3.22;;;15.80;99.90;;;;;;4999085;28;20026;-78
2023/05/26 11:32:28;;;;;;;11.20;2.40;;;15.70;99.90;;;;;;4995399;28;20050;-73
2023/05/26 11:34:53;;;;;;;8.30;2.80;;;15.90;99.90;;;;;;5002451;28;20413;-70
2023/05/26 11:37:22;;;;;;;9.47;2.30;;;15.70;99.90;;;;;;4997666;28;20030;-78
2023/05/26 11:39:49;;;;;;;7.10;2.20;;;15.80;99.90;;;;;;5005858;28;20046;-67
2023/05/26 11:42:15;;;;;;;7.22;1.40;;;15.90;99.90;;;;;;4998590;28;20029;-67
2023/05/26 11:44:43;;;;;;;16.30;2.80;;;16.00;99.90;;;;;;4996454;28;20082;-66
2023/05/26 11:47:14;;;;;;;8.80;3.08;;;16.10;99.90;;;;;;4994400;28;20030;-67
2023/05/26 11:49:45;;;;;;;11.75;2.08;;;16.10;99.90;;;;;;4985959;28;20034;-67
2023/05/26 11:52:14;;;;;;;12.88;1.98;;;16.00;99.90;;;;;;4988153;28;20082;-66
2023/05/26 11:54:39;;;;;;;12.52;2.83;;;16.00;99.90;;;;;;4985029;28;20038;-66
2023/05/26 11:57:21;;;;;;;19.20;2.83;;;16.00;99.90;;;;;;5008529;28;20429;-69
2023/05/26 11:59:47;;;;;;;9.30;2.50;;;16.00;99.90;;;;;;4982020;28;20019;-69
2023/05/26 12:02:13;;;;;;;9.10;2.73;;;16.10;99.90;;;;;;4991524;28;20029;-68
2023/05/26 12:04:41;;;;;;;12.13;2.20;;;16.10;99.90;;;;;;5000604;28;20415;-67
2023/05/26 12:07:06;;;;;;;9.05;2.13;;;16.00;99.90;;;;;;4991141;28;20030;-66
2023/05/26 12:09:32;;;;;;;11.93;2.50;;;16.10;99.90;;;;;;4987494;28;20374;-67
2023/05/26 12:11:58;;;;;;;7.50;1.20;;;16.10;99.90;;;;;;4991108;28;20434;-81
2023/05/26 12:14:24;;;;;;;15.77;3.00;;;16.10;99.90;;;;;;4981581;28;20037;-68
2023/05/26 12:16:52;;;;;;;8.63;2.10;;;15.90;99.90;;;;;;5009283;28;20059;-67
2023/05/26 12:19:21;;;;;;;11.75;3.17;;;15.90;99.90;;;;;;5013331;28;20021;-66
2023/05/26 12:21:49;;;;;;;16.77;2.00;;;16.00;99.90;;;;;;5012714;28;20017;-68
2023/05/26 12:24:30;;;;;;;13.07;2.70;;;16.10;99.90;;;;;;5014320;28;20026;-66
2023/05/26 12:26:56;;;;;;;16.33;2.38;;;16.20;99.90;;;;;;4988708;28;20105;-67
2023/05/26 12:29:22;;;;;;;18.50;1.60;;;16.30;99.90;;;;;;4989547;28;20450;-67
2023/05/26 12:31:51;;;;;;;11.63;2.57;;;16.30;99.90;;;;;;4984434;28;20023;-66
2023/05/26 12:34:22;;;;;;;12.13;2.78;;;16.30;99.90;;;;;;4985410;28;20023;-69
2023/05/26 12:36:50;;;;;;;7.57;2.38;;;16.30;99.90;;;;;;5007911;28;20377;-67
2023/05/26 12:39:16;;;;;;;15.55;3.22;;;16.30;99.90;;;;;;5008122;28;20406;-68
2023/05/26 12:41:45;;;;;;;8.75;3.38;;;16.50;99.90;;;;;;5005319;28;20266;-66
2023/05/26 12:44:11;;;;;;;5.60;1.48;;;16.40;99.90;;;;;;5011774;28;20088;-67